Time;durP1;ratioP1;P1;durP2;ratioP2;P2;SDS_P1;SDS_P2;PMS_P1;PMS_P2;Temp;Humidity;BMP_temperature;BMP_pressure;BME280_temperature;BME280_humidity;BME280_pressure;Samples;Min_cycle;Max_cycle;Signal;HPM_P1;HPM_P2
2022/05/17 00:02:27;;;;;;;9.73;4.93;;;;;;;15.43;96.89;101022.38;8379065;28;20040;-63
2022/05/17 00:06:29;;;;;;;11.45;4.13;;;;;;;15.32;96.76;101029.94;8377144;28;20044;-63
2022/05/17 00:10:30;;;;;;;9.43;4.68;;;;;;;15.01;98.79;101029.47;8377790;28;20033;-63
2022/05/17 00:14:31;;;;;;;13.00;4.88;;;;;;;14.98;99.99;101029.78;8363378;28;20504;-63
2022/05/17 00:18:33;;;;;;;7.90;5.05;;;;;;;15.29;97.69;101017.50;8380551;28;20048;-63
2022/05/17 00:22:34;;;;;;;11.20;4.80;;;;;;;15.21;96.65;101009.25;8390192;28;20363;-63
2022/05/17 00:26:35;;;;;;;12.43;4.80;;;;;;;15.07;97.88;101009.78;8368679;28;20037;-63
2022/05/17 00:30:35;;;;;;;8.75;4.82;;;;;;;15.22;96.85;101013.66;8383879;28;20125;-63
2022/05/17 00:34:36;;;;;;;11.40;4.30;;;;;;;14.81;98.78;101011.59;8381186;28;20041;-63
2022/05/17 00:38:37;;;;;;;9.38;4.38;;;;;;;14.71;100.00;101008.13;8383518;28;20444;-63
2022/05/17 00:42:37;;;;;;;15.02;5.63;;;;;;;14.73;100.00;100997.91;8381921;28;20029;-63
2022/05/17 00:47:01;;;;;;;12.38;4.70;;;;;;;14.66;100.00;101001.41;8385711;28;20048;-63
2022/05/17 00:51:03;;;;;;;8.98;5.00;;;;;;;14.66;100.00;100996.81;8381352;28;20481;-63
2022/05/17 00:55:10;;;;;;;7.25;4.18;;;;;;;14.75;98.97;101006.78;8379176;28;20063;-63
2022/05/17 00:59:10;;;;;;;13.48;4.63;;;;;;;14.74;98.35;101004.22;8381522;28;20047;-63
2022/05/17 01:03:15;;;;;;;18.02;5.18;;;;;;;14.03;100.00;101005.91;8380105;28;20036;-63
2022/05/17 01:07:19;;;;;;;14.27;5.20;;;;;;;13.57;100.00;101008.69;8368389;28;20052;-63
2022/05/17 01:11:19;;;;;;;9.05;4.38;;;;;;;13.61;100.00;101007.41;8369644;28;20040;-63
2022/05/17 01:15:20;;;;;;;9.65;4.75;;;;;;;13.80;100.00;101007.34;8375891;28;20036;-63
2022/05/17 01:19:20;;;;;;;7.30;4.35;;;;;;;14.08;100.00;101011.78;8379662;28;20033;-63
2022/05/17 01:23:20;;;;;;;11.15;5.28;;;;;;;14.09;100.00;101007.19;8367197;28;20032;-63
2022/05/17 01:27:29;;;;;;;8.25;4.38;;;;;;;14.06;100.00;100997.47;8379381;28;20067;-63
2022/05/17 01:31:31;;;;;;;8.93;4.47;;;;;;;14.01;100.00;100999.78;8376955;28;20025;-63
2022/05/17 01:35:31;;;;;;;8.57;5.30;;;;;;;13.68;100.00;101003.09;8384381;28;20043;-63
2022/05/17 01:39:33;;;;;;;7.90;5.65;;;;;;;13.56;100.00;100999.69;8377572;28;21705;-63
2022/05/17 01:43:33;;;;;;;15.10;5.53;;;;;;;13.47;100.00;101005.16;8377657;28;20052;-63
2022/05/17 01:47:34;;;;;;;13.73;5.72;;;;;;;13.35;100.00;101003.59;8376511;28;20453;-63
2022/05/17 01:51:34;;;;;;;13.70;5.78;;;;;;;13.17;100.00;100999.91;8376011;28;20033;-63
2022/05/17 01:55:35;;;;;;;9.77;6.65;;;;;;;13.17;100.00;100991.78;8376624;28;20459;-63
2022/05/17 01:59:35;;;;;;;8.63;6.00;;;;;;;13.40;100.00;100987.72;8373401;28;20072;-63
2022/05/17 02:03:36;;;;;;;16.60;6.93;;;;;;;13.39;100.00;100995.00;8377209;28;20037;-63
2022/05/17 02:07:36;;;;;;;9.30;6.22;;;;;;;13.39;100.00;100995.00;8374131;28;20067;-63
2022/05/17 02:11:37;;;;;;;10.68;5.82;;;;;;;13.41;100.00;101005.72;8375213;28;20037;-63
2022/05/17 02:15:38;;;;;;;11.00;6.45;;;;;;;13.25;100.00;101005.50;8366382;28;20052;-63
2022/05/17 02:19:38;;;;;;;10.00;6.57;;;;;;;13.07;100.00;101001.81;8374577;28;20044;-63
2022/05/17 02:23:39;;;;;;;11.15;6.65;;;;;;;13.02;100.00;100993.25;8374011;28;20033;-63
2022/05/17 02:27:39;;;;;;;12.95;6.97;;;;;;;13.15;100.00;101004.66;8373201;28;20036;-63
2022/05/17 02:31:40;;;;;;;12.63;6.82;;;;;;;12.92;100.00;101004.06;8353040;28;20033;-63
2022/05/17 02:35:41;;;;;;;8.63;6.90;;;;;;;12.75;100.00;100995.81;8372432;28;20056;-63
2022/05/17 02:39:45;;;;;;;16.73;7.85;;;;;;;12.71;100.00;100999.78;8373527;28;20032;-63
2022/05/17 02:43:46;;;;;;;13.07;6.78;;;;;;;12.75;100.00;101006.66;8371495;28;20044;-63
2022/05/17 02:47:48;;;;;;;10.00;6.30;;;;;;;12.74;100.00;101013.06;8372596;28;20417;-63
2022/05/17 02:51:49;;;;;;;10.30;5.55;;;;;;;12.75;100.00;101012.09;8365588;28;20040;-63
2022/05/17 02:55:49;;;;;;;12.30;6.63;;;;;;;12.49;100.00;101021.75;8365426;28;20036;-63
2022/05/17 02:59:49;;;;;;;9.38;6.03;;;;;;;12.31;100.00;101016.16;8358178;28;20086;-63
2022/05/17 03:03:50;;;;;;;12.13;6.23;;;;;;;12.35;100.00;101014.03;8367695;28;20037;-63
2022/05/17 03:07:50;;;;;;;8.65;6.45;;;;;;;12.45;100.00;101020.31;8373259;28;20283;-63
2022/05/17 03:11:51;;;;;;;13.63;5.07;;;;;;;12.39;100.00;101031.72;8387838;28;20025;-63
2022/05/17 03:15:52;;;;;;;12.27;5.40;;;;;;;12.32;100.00;101034.13;8374186;28;20029;-63
2022/05/17 03:19:54;;;;;;;5.97;4.88;;;;;;;12.17;100.00;101029.25;8371406;28;20057;-63
2022/05/17 03:23:54;;;;;;;9.73;5.20;;;;;;;12.31;100.00;101024.28;8384967;28;20405;-63
2022/05/17 03:27:55;;;;;;;10.55;5.13;;;;;;;12.32;100.00;101030.59;8371888;28;20049;-63
2022/05/17 03:31:56;;;;;;;11.85;5.38;;;;;;;12.29;100.00;101025.44;8372936;28;20041;-63
2022/05/17 03:35:56;;;;;;;9.75;5.72;;;;;;;12.35;100.00;101030.31;8371788;28;20043;-63
2022/05/17 03:39:56;;;;;;;11.38;5.80;;;;;;;12.42;100.00;101042.28;8370624;28;20044;-63
2022/05/17 03:43:57;;;;;;;13.50;4.68;;;;;;;12.65;100.00;101038.31;8374261;28;20047;-63
2022/05/17 03:47:57;;;;;;;9.40;5.15;;;;;;;12.70;100.00;101041.47;8372554;28;20528;-63
2022/05/17 03:51:58;;;;;;;15.20;5.60;;;;;;;12.81;100.00;101038.66;8368081;28;20060;-63
2022/05/17 03:55:58;;;;;;;10.48;5.60;;;;;;;12.92;100.00;101044.78;8357103;28;20100;-63
2022/05/17 03:59:59;;;;;;;11.55;5.10;;;;;;;13.13;100.00;101050.09;8393299;28;20041;-63
2022/05/17 04:03:59;;;;;;;12.27;5.28;;;;;;;13.11;100.00;101052.09;8377465;28;20508;-63
2022/05/17 04:08:00;;;;;;;11.80;5.25;;;;;;;13.14;100.00;101051.78;8374963;28;20489;-63
2022/05/17 04:12:03;;;;;;;11.13;5.03;;;;;;;13.32;100.00;101044.63;8377353;28;20120;-63
2022/05/17 04:16:04;;;;;;;9.32;5.03;;;;;;;13.24;100.00;101042.63;8376483;28;20052;-63
2022/05/17 04:20:05;;;;;;;11.40;4.75;;;;;;;13.32;100.00;101036.47;8377725;28;20092;-63
2022/05/17 04:24:06;;;;;;;10.65;4.47;;;;;;;13.45;100.00;101045.22;8376326;28;20040;-63
2022/05/17 04:28:06;;;;;;;10.13;4.72;;;;;;;13.65;100.00;101052.28;8364032;28;20554;-63
2022/05/17 04:32:08;;;;;;;7.70;4.40;;;;;;;13.75;100.00;101047.69;8376350;28;20166;-63
2022/05/17 04:36:10;;;;;;;11.35;4.80;;;;;;;13.64;100.00;101050.59;8377531;28;20033;-63
2022/05/17 04:40:13;;;;;;;12.05;4.60;;;;;;;13.75;100.00;101055.81;8382475;28;20036;-63
2022/05/17 04:44:13;;;;;;;13.07;4.85;;;;;;;13.86;100.00;101055.66;8362261;28;20041;-63
2022/05/17 04:48:13;;;;;;;11.75;4.47;;;;;;;14.01;100.00;101062.31;8382987;28;20051;-63
2022/05/17 04:52:14;;;;;;;15.77;4.70;;;;;;;14.11;100.00;101065.00;8384343;28;20036;-63
2022/05/17 04:56:14;;;;;;;11.10;5.03;;;;;;;14.10;100.00;101063.28;8371510;28;20045;-63
2022/05/17 05:00:18;;;;;;;8.63;4.32;;;;;;;14.09;100.00;101064.31;8374223;28;20045;-63
2022/05/17 05:04:19;;;;;;;9.75;5.20;;;;;;;14.15;100.00;101067.25;8370137;28;20102;-63
2022/05/17 05:08:19;;;;;;;6.05;4.10;;;;;;;14.17;100.00;101069.81;8375525;28;20109;-63
2022/05/17 05:12:20;;;;;;;5.75;4.15;;;;;;;14.28;100.00;101076.00;8376614;28;20033;-63
2022/05/17 05:16:20;;;;;;;10.40;5.18;;;;;;;14.55;100.00;101067.78;8373514;28;20059;-63
2022/05/17 05:20:21;;;;;;;8.00;4.30;;;;;;;14.67;100.00;101080.19;8362831;28;20045;-63
2022/05/17 05:24:22;;;;;;;9.77;4.13;;;;;;;14.88;100.00;101078.03;8360059;28;20064;-63
2022/05/17 05:28:22;;;;;;;7.15;4.30;;;;;;;15.00;100.00;101071.34;8369277;28;20051;-63
2022/05/17 05:32:23;;;;;;;8.55;3.83;;;;;;;15.24;100.00;101065.25;8371100;28;20034;-63
2022/05/17 05:36:23;;;;;;;10.55;3.80;;;;;;;15.91;99.29;101067.31;8360647;28;20091;-63
2022/05/17 05:40:24;;;;;;;7.93;4.00;;;;;;;15.73;100.00;101068.25;8355798;28;20041;-63
2022/05/17 05:44:24;;;;;;;9.20;4.20;;;;;;;15.77;100.00;101084.28;8366559;28;20057;-63
2022/05/17 05:48:25;;;;;;;8.65;4.07;;;;;;;15.77;100.00;101077.81;8369814;28;20048;-63
2022/05/17 05:52:26;;;;;;;6.97;4.03;;;;;;;15.90;100.00;101081.97;8369727;28;20041;-63
2022/05/17 05:56:26;;;;;;;8.48;3.95;;;;;;;16.05;100.00;101074.91;8368243;28;20052;-63
2022/05/17 06:00:27;;;;;;;8.20;4.00;;;;;;;16.12;100.00;101087.75;8382845;28;20036;-63
2022/05/17 06:04:28;;;;;;;4.10;3.75;;;;;;;16.42;100.00;101083.63;8367870;28;20029;-64
2022/05/17 06:08:28;;;;;;;9.65;4.18;;;;;;;16.83;99.66;101090.94;8367583;28;20075;-64
2022/05/17 06:12:29;;;;;;;11.18;4.20;;;;;;;17.02;98.11;101090.69;8366743;28;20044;-64
2022/05/17 06:16:29;;;;;;;6.70;3.63;;;;;;;17.29;97.23;101093.94;8367724;28;20068;-64
2022/05/17 06:20:30;;;;;;;12.57;4.68;;;;;;;17.59;96.52;101103.38;8367365;28;20036;-64
2022/05/17 06:24:31;;;;;;;9.27;3.88;;;;;;;17.82;93.49;101093.47;8367742;28;20037;-64
2022/05/17 06:28:32;;;;;;;7.45;3.60;;;;;;;17.58;94.67;101091.59;8365554;28;20037;-64
2022/05/17 06:32:33;;;;;;;6.13;3.80;;;;;;;17.64;96.30;101090.06;8366005;28;20032;-64
2022/05/17 06:36:34;;;;;;;11.23;4.53;;;;;;;17.97;96.40;101086.25;8366009;28;20044;-64
2022/05/17 06:40:36;;;;;;;7.70;3.58;;;;;;;18.36;93.93;101087.13;8362948;28;20056;-64
2022/05/17 06:44:37;;;;;;;11.73;4.22;;;;;;;18.50;93.90;101094.66;8369033;28;20041;-64
2022/05/17 06:48:37;;;;;;;9.38;3.85;;;;;;;18.72;94.23;101082.91;8369306;28;20526;-64
2022/05/17 06:52:38;;;;;;;7.03;3.70;;;;;;;18.80;92.78;101091.09;8366396;28;20401;-64
2022/05/17 06:56:39;;;;;;;10.05;4.55;;;;;;;18.96;93.22;101091.00;8365053;28;20340;-64
2022/05/17 07:00:40;;;;;;;6.35;3.70;;;;;;;19.36;90.82;101098.97;8366166;28;20544;-64
2022/05/17 07:04:41;;;;;;;7.40;4.00;;;;;;;19.85;87.72;101093.06;8363905;28;20033;-64
2022/05/17 07:08:41;;;;;;;8.35;3.40;;;;;;;20.01;87.34;101098.41;8364904;28;20040;-64
2022/05/17 07:13:13;;;;;;;8.48;3.50;;;;;;;19.90;87.96;101096.97;8361541;28;20040;-64
2022/05/17 07:17:03;;;;;;;9.88;3.38;;;;;;;20.08;85.65;101091.97;8358706;28;20036;-64
2022/05/17 07:21:04;;;;;;;5.28;3.40;;;;;;;20.25;83.82;101104.50;8365808;28;20048;-64
2022/05/17 07:25:05;;;;;;;7.50;2.60;;;;;;;20.30;83.00;101113.03;8366029;28;20033;-64
2022/05/17 07:29:05;;;;;;;9.57;2.85;;;;;;;20.49;81.30;101103.38;8370111;28;20271;-64
2022/05/17 07:33:06;;;;;;;6.68;2.28;;;;;;;20.74;80.16;101110.28;8374666;28;20043;-64
2022/05/17 07:37:06;;;;;;;5.68;1.95;;;;;;;20.92;77.94;101110.72;8374844;28;20032;-64
2022/05/17 07:41:07;;;;;;;8.93;2.70;;;;;;;21.08;78.66;101110.50;8373149;28;20037;-64
2022/05/17 07:45:14;;;;;;;6.85;2.33;;;;;;;21.12;77.19;101111.81;8372526;28;20029;-64
2022/05/17 07:49:15;;;;;;;6.72;1.88;;;;;;;20.80;77.27;101112.25;8360572;28;20068;-64
2022/05/17 07:53:17;;;;;;;8.60;2.40;;;;;;;20.74;78.50;101115.78;8373055;28;20029;-64
2022/05/17 07:57:19;;;;;;;9.38;3.22;;;;;;;20.75;79.91;101125.72;8372152;28;20310;-64
2022/05/17 08:01:19;;;;;;;5.97;3.08;;;;;;;20.96;79.93;101120.31;8372299;28;20086;-64
2022/05/17 08:05:20;;;;;;;11.05;2.85;;;;;;;21.35;79.48;101127.09;8371640;28;20056;-64
2022/05/17 08:09:20;;;;;;;7.07;2.73;;;;;;;21.37;78.06;101126.06;8370075;28;20052;-64
2022/05/17 08:13:23;;;;;;;8.52;2.60;;;;;;;21.53;78.61;101121.13;8353299;28;20702;-64
2022/05/17 08:17:23;;;;;;;12.65;3.95;;;;;;;21.42;77.98;101129.94;8369116;28;20508;-64
2022/05/17 08:21:24;;;;;;;9.18;2.92;;;;;;;21.84;77.21;101129.09;8369699;28;20699;-64
2022/05/17 08:29:45;;;;;;;8.52;2.85;;;;;;;22.24;74.36;101131.97;8368278;28;20044;-64
2022/05/17 08:33:48;;;;;;;6.50;2.70;;;;;;;22.50;73.76;101126.66;8368451;28;20037;-64
2022/05/17 08:37:48;;;;;;;6.90;1.80;;;;;;;23.11;71.07;101138.59;8368977;28;20458;-64
2022/05/17 08:41:59;;;;;;;8.68;2.20;;;;;;;23.07;71.94;101129.91;8368873;28;20041;-64
2022/05/17 08:50:37;;;;;;;7.82;2.10;;;;;;;23.38;69.91;101142.31;8385335;27;20905;-63
2022/05/17 08:54:45;;;;;;;6.70;1.80;;;;;;;23.37;69.45;101140.63;8333630;28;20140;-63
2022/05/17 08:58:50;;;;;;;5.50;1.80;;;;;;;23.71;67.57;101137.72;8362013;28;20033;-63
2022/05/17 09:02:56;;;;;;;5.38;1.70;;;;;;;23.71;67.65;101143.25;8366411;28;20044;-63
2022/05/17 09:07:25;;;;;;;5.43;1.48;;;;;;;23.87;66.76;101138.16;8365962;28;20126;-63
2022/05/17 09:11:38;;;;;;;10.13;1.83;;;;;;;23.51;67.01;101139.63;8338173;28;20068;-63
2022/05/17 09:15:39;;;;;;;5.00;1.73;;;;;;;23.63;68.08;101132.44;8365488;28;20039;-63
2022/05/17 09:19:40;;;;;;;9.00;1.55;;;;;;;23.46;67.17;101133.88;8358822;28;20029;-63
2022/05/17 09:23:40;;;;;;;5.57;1.40;;;;;;;23.70;67.97;101125.84;8333929;28;20033;-63
2022/05/17 09:27:41;;;;;;;5.43;1.67;;;;;;;23.91;66.42;101127.56;8333026;28;20029;-63
2022/05/17 09:31:51;;;;;;;5.47;1.80;;;;;;;24.47;65.56;101123.28;8332410;28;20297;-63
2022/05/17 09:35:57;;;;;;;8.18;1.70;;;;;;;24.96;65.62;101115.28;8380008;28;20295;-63
2022/05/17 09:39:57;;;;;;;8.25;1.75;;;;;;;25.43;65.42;101109.28;8398974;28;20094;-63
2022/05/17 09:44:04;;;;;;;2.58;1.15;;;;;;;25.64;60.75;101110.88;8381341;28;20061;-63
2022/05/17 09:48:08;;;;;;;6.65;1.40;;;;;;;24.86;63.80;101117.66;8392556;28;20061;-63
2022/05/17 09:56:30;;;;;;;5.60;1.00;;;;;;;24.52;61.95;101115.19;8454251;27;20344;-62
2022/05/17 10:04:56;;;;;;;5.30;1.50;;;;;;;24.60;63.87;101101.09;8418469;27;20383;-62
2022/05/17 10:09:08;;;;;;;12.13;2.50;;;;;;;24.50;63.67;101103.47;8413595;28;20448;-62
2022/05/17 10:13:32;;;;;;;6.38;1.25;;;;;;;24.25;63.98;101108.00;8416376;28;20066;-62
2022/05/17 10:22:01;;;;;;;4.55;1.00;;;;;;;24.23;62.04;101094.41;8331407;27;20421;-62
2022/05/17 10:26:09;;;;;;;6.72;0.90;;;;;;;24.20;63.10;101088.44;8328739;28;20041;-63
2022/05/17 10:30:16;;;;;;;2.17;0.80;;;;;;;24.44;62.31;101091.38;8328528;28;20064;-63
2022/05/17 10:34:33;;;;;;;3.20;1.17;;;;;;;24.73;59.98;101081.75;8329137;28;20409;-63
2022/05/17 10:38:40;;;;;;;4.22;1.33;;;;;;;25.46;60.31;101067.31;8327651;28;20185;-63
2022/05/17 10:42:43;;;;;;;5.75;0.80;;;;;;;28.49;56.22;101076.81;8332315;28;20038;-63
2022/05/17 10:46:49;;;;;;;4.53;1.10;;;;;;;28.65;53.10;101064.94;8329369;28;20034;-63
2022/05/17 10:51:03;;;;;;;4.28;1.35;;;;;;;27.44;53.92;101060.25;8358699;28;20037;-63
2022/05/17 10:55:40;;;;;;;6.43;1.25;;;;;;;27.72;54.08;101063.19;8356066;28;20120;-63
2022/05/17 11:00:15;;;;;;;4.13;1.10;;;;;;;27.35;55.31;101068.06;8358849;28;20128;-63
2022/05/17 11:04:57;;;;;;;4.38;1.30;;;;;;;26.70;57.39;101057.81;8325890;28;20058;-63
2022/05/17 11:09:37;;;;;;;6.55;1.30;;;;;;;25.71;58.31;101057.09;8328591;28;20045;-63
2022/05/17 11:18:29;;;;;;;2.80;1.00;;;;;;;25.79;58.20;101026.34;8350057;27;20420;-62
2022/05/17 11:22:53;;;;;;;1.98;0.80;;;;;;;25.83;58.15;101044.19;8350383;28;20048;-63
2022/05/17 11:27:22;;;;;;;2.10;0.90;;;;;;;26.48;57.74;101038.00;8351107;28;20063;-63
2022/05/17 11:35:56;;;;;;;10.00;0.85;;;;;;;26.22;57.21;101021.66;8403339;27;20392;-64
2022/05/17 11:39:57;;;;;;;5.65;1.10;;;;;;;26.28;56.90;101030.97;8415710;28;20037;-63
2022/05/17 11:48:20;;;;;;;4.05;0.98;;;;;;;27.67;53.20;101022.22;8413176;27;20797;-63
2022/05/17 11:52:27;;;;;;;3.00;0.70;;;;;;;28.06;53.14;101009.59;8390776;28;20047;-63
2022/05/17 11:56:42;;;;;;;2.63;0.47;;;;;;;27.65;50.08;101006.88;8398150;28;20032;-63
2022/05/17 12:00:45;;;;;;;3.10;0.77;;;;;;;27.35;52.16;100997.78;8380267;28;20045;-63
2022/05/17 12:04:46;;;;;;;2.15;0.80;;;;;;;27.08;54.37;101004.78;8389408;28;20040;-63
2022/05/17 12:08:47;;;;;;;1.42;0.40;;;;;;;26.94;52.59;100997.72;8381405;28;20052;-63
2022/05/17 12:13:02;;;;;;;4.63;0.90;;;;;;;26.95;52.84;101005.00;8406595;28;20066;-63
2022/05/17 12:17:11;;;;;;;3.28;1.00;;;;;;;26.97;54.40;101008.34;8418914;28;20036;-63
2022/05/17 12:21:24;;;;;;;6.57;0.85;;;;;;;26.86;52.38;100992.53;8416024;28;20029;-63
2022/05/17 12:25:44;;;;;;;1.67;0.50;;;;;;;27.00;50.19;100991.22;8419411;28;20090;-63
2022/05/17 12:30:53;;;;;;;1.98;0.50;;;;;;;27.73;52.02;100987.06;8417870;28;20032;-63
2022/05/17 12:34:14;;;;;;;3.33;1.02;;;;;;;27.43;53.21;100977.97;8424307;28;20055;-63
2022/05/17 12:43:06;;;;;;;3.65;0.77;;;;;;;26.35;53.75;100982.69;8416328;28;20437;-63
2022/05/17 12:47:13;;;;;;;2.00;0.70;;;;;;;26.84;52.70;100976.94;8403943;28;20180;-63
2022/05/17 12:51:17;;;;;;;1.20;0.52;;;;;;;26.69;53.30;100973.72;8414850;28;20036;-63
2022/05/17 12:55:22;;;;;;;2.00;0.60;;;;;;;26.55;53.82;100969.41;8376820;28;20435;-63
2022/05/17 12:59:28;;;;;;;5.40;1.23;;;;;;;26.78;54.54;100955.66;8396089;28;20052;-63
2022/05/17 13:03:30;;;;;;;2.53;0.77;;;;;;;27.03;51.26;100954.66;8397488;28;20033;-63
2022/05/17 13:07:31;;;;;;;4.00;0.57;;;;;;;27.16;51.31;100937.78;8381613;28;20041;-63
2022/05/17 13:11:33;;;;;;;3.47;0.68;;;;;;;26.95;53.40;100947.53;8389642;28;20041;-63
2022/05/17 13:15:34;;;;;;;2.05;0.65;;;;;;;26.66;52.82;100953.94;8390180;28;20048;-63
2022/05/17 13:19:36;;;;;;;3.00;0.60;;;;;;;26.61;52.46;100949.06;8389119;28;20092;-63
2022/05/17 13:23:37;;;;;;;3.17;0.68;;;;;;;26.57;51.64;100935.91;8388943;28;20059;-63
2022/05/17 13:27:45;;;;;;;3.05;0.77;;;;;;;26.61;52.88;100937.13;8395523;28;20037;-63
2022/05/17 13:31:45;;;;;;;3.55;0.95;;;;;;;26.40;53.30;100937.59;8391824;28;20037;-63
2022/05/17 13:36:21;;;;;;;3.85;0.40;;;;;;;26.79;50.38;100935.19;8399296;28;20064;-63
2022/05/17 13:40:58;;;;;;;2.63;0.73;;;;;;;26.55;52.04;100933.34;8395351;28;20068;-63
2022/05/17 13:45:04;;;;;;;1.50;0.47;;;;;;;26.74;52.23;100931.41;8389679;28;20041;-63
2022/05/17 13:49:14;;;;;;;5.50;1.00;;;;;;;27.17;53.89;100925.63;8394171;28;20386;-63
2022/05/17 13:53:15;;;;;;;4.68;0.80;;;;;;;27.17;52.49;100914.50;8396106;28;20377;-64
2022/05/17 13:57:21;;;;;;;1.70;0.80;;;;;;;27.08;54.16;100905.66;8392350;28;20032;-63
2022/05/17 14:01:30;;;;;;;2.60;0.80;;;;;;;27.00;54.84;100907.94;8389178;28;20039;-63
2022/05/17 14:05:34;;;;;;;5.32;0.90;;;;;;;26.95;54.63;100893.97;8385759;28;20068;-63
2022/05/17 14:13:55;;;;;;;5.57;1.15;;;;;;;26.76;55.29;100884.84;8393813;28;19913;-63
2022/05/17 14:17:55;;;;;;;3.80;0.70;;;;;;;27.07;53.86;100881.78;8379323;28;20032;-63
2022/05/17 14:22:00;;;;;;;1.47;0.80;;;;;;;26.78;53.48;100885.47;8384705;28;20033;-61
2022/05/17 14:26:02;;;;;;;5.40;1.17;;;;;;;26.74;54.34;100873.13;8395176;28;20267;-62
2022/05/17 14:30:03;;;;;;;5.35;1.05;;;;;;;26.63;54.80;100876.72;8389695;28;20036;-62
2022/05/17 14:34:07;;;;;;;2.80;1.42;;;;;;;26.58;54.87;100865.44;8418329;28;20043;-62
2022/05/17 14:38:07;;;;;;;2.03;0.95;;;;;;;27.01;54.62;100873.56;8378741;28;20063;-63
2022/05/17 14:42:08;;;;;;;4.28;0.98;;;;;;;26.90;53.30;100871.59;8391781;28;20033;-63
2022/05/17 14:46:15;;;;;;;3.15;1.20;;;;;;;26.80;52.89;100858.31;8371242;28;20045;-63
2022/05/17 14:50:19;;;;;;;3.10;1.10;;;;;;;26.89;51.74;100861.59;8367836;28;20124;-63
2022/05/17 14:54:20;;;;;;;3.33;0.80;;;;;;;26.90;51.22;100857.72;8376242;28;20496;-63
2022/05/17 14:58:21;;;;;;;2.95;0.93;;;;;;;26.89;53.18;100851.31;8393910;28;20457;-63
2022/05/17 15:02:21;;;;;;;2.88;0.70;;;;;;;26.95;52.99;100849.53;8387850;28;20555;-63
2022/05/17 15:06:22;;;;;;;3.13;0.85;;;;;;;26.90;52.20;100841.94;8388401;28;20043;-63
2022/05/17 15:10:28;;;;;;;3.22;0.65;;;;;;;26.99;52.41;100836.88;8379416;28;20043;-63
2022/05/17 15:14:28;;;;;;;2.67;0.63;;;;;;;26.91;53.40;100826.09;8373069;28;20044;-63
2022/05/17 15:18:37;;;;;;;2.92;0.95;;;;;;;27.21;51.10;100821.31;8371330;28;20465;-63
2022/05/17 15:22:44;;;;;;;2.95;0.80;;;;;;;26.93;52.03;100835.06;8388517;28;20065;-63
2022/05/17 15:26:44;;;;;;;4.15;0.73;;;;;;;26.89;52.65;100834.66;8380597;28;20041;-63
2022/05/17 15:30:45;;;;;;;1.17;0.57;;;;;;;26.68;53.01;100838.00;8373704;28;20316;-63
2022/05/17 15:34:46;;;;;;;2.15;0.77;;;;;;;26.54;53.36;100836.50;8380870;28;20032;-63
2022/05/17 15:38:47;;;;;;;3.08;0.90;;;;;;;26.57;53.62;100836.88;8389248;28;20085;-63
2022/05/17 15:42:47;;;;;;;1.40;0.65;;;;;;;26.65;53.67;100822.69;8379690;28;20040;-63
2022/05/17 15:55:34;;;;;;;1.48;0.68;;;;;;;26.79;53.90;100817.78;8366745;28;20041;-63
2022/05/17 15:59:34;;;;;;;2.13;0.88;;;;;;;26.97;53.95;100825.16;8374533;28;20484;-65
2022/05/17 16:03:41;;;;;;;2.13;1.02;;;;;;;26.94;53.29;100814.53;8347694;28;20135;-64
2022/05/17 16:08:13;;;;;;;11.57;1.45;;;;;;;27.11;52.87;100821.06;8358063;28;20460;-64
2022/05/17 16:12:02;;;;;;;3.22;0.80;;;;;;;26.98;52.68;100815.75;8365796;28;20037;-63
2022/05/17 16:16:03;;;;;;;2.05;0.80;;;;;;;26.94;53.66;100808.97;8349346;28;20059;-63
2022/05/17 16:20:08;;;;;;;2.10;0.75;;;;;;;26.92;53.89;100814.75;8359948;28;20044;-64
2022/05/17 16:24:08;;;;;;;1.48;0.80;;;;;;;26.75;54.11;100803.50;8344566;28;20045;-64
2022/05/17 16:28:10;;;;;;;1.57;0.80;;;;;;;26.77;54.41;100798.59;8337814;28;20067;-63
2022/05/17 16:32:13;;;;;;;2.53;0.80;;;;;;;26.67;55.02;100798.34;8348836;28;20284;-63
2022/05/17 16:36:14;;;;;;;5.85;0.80;;;;;;;26.76;54.34;100798.81;8381378;28;20041;-63
2022/05/17 16:40:16;;;;;;;3.90;0.90;;;;;;;26.57;54.69;100798.06;8388039;28;20104;-63
2022/05/17 16:44:16;;;;;;;3.78;0.80;;;;;;;26.57;53.81;100798.06;8391897;28;20114;-63
2022/05/17 16:48:16;;;;;;;4.13;1.10;;;;;;;26.58;54.01;100796.97;8364426;28;20040;-63
2022/05/17 16:52:18;;;;;;;4.85;1.17;;;;;;;26.62;53.71;100800.97;8388932;28;20775;-63
2022/05/17 16:56:19;;;;;;;8.70;1.50;;;;;;;26.65;54.58;100792.16;8388177;28;20124;-63
2022/05/17 17:00:20;;;;;;;5.28;0.88;;;;;;;26.56;54.81;100795.50;8383431;28;20033;-63
2022/05/17 17:04:23;;;;;;;6.50;1.10;;;;;;;26.43;53.95;100788.22;8404695;28;20069;-63
2022/05/17 17:08:23;;;;;;;3.03;0.90;;;;;;;26.17;55.26;100785.84;8389893;28;20409;-63
2022/05/17 17:12:24;;;;;;;6.93;1.10;;;;;;;26.16;55.80;100784.16;8401176;28;20157;-63
2022/05/17 17:16:25;;;;;;;2.35;1.00;;;;;;;26.24;54.60;100785.75;8378919;28;20033;-63
2022/05/17 17:20:27;;;;;;;4.38;1.00;;;;;;;26.20;54.52;100788.16;8377646;28;20526;-63
2022/05/17 17:24:27;;;;;;;3.45;0.90;;;;;;;26.26;54.26;100787.19;8377122;28;20033;-65
2022/05/17 17:28:31;;;;;;;2.83;0.80;;;;;;;26.33;54.55;100784.34;8377585;28;20048;-64
2022/05/17 17:37:22;;;;;;;4.93;0.70;;;;;;;26.16;54.97;100794.38;8371697;28;20394;-64
2022/05/17 17:41:15;;;;;;;2.22;0.80;;;;;;;26.14;54.95;100780.75;8371490;28;20064;-64
2022/05/17 17:45:21;;;;;;;3.22;0.90;;;;;;;25.98;55.84;100791.69;8371080;28;20041;-64
2022/05/17 17:49:23;;;;;;;1.58;0.80;;;;;;;25.91;56.00;100788.97;8372573;28;20077;-64
2022/05/17 17:53:23;;;;;;;15.05;1.85;;;;;;;25.80;56.53;100784.19;8360784;28;20064;-64
2022/05/17 17:57:24;;;;;;;3.40;1.25;;;;;;;25.71;56.60;100796.69;8369472;28;20056;-64
2022/05/17 18:01:24;;;;;;;1.50;1.10;;;;;;;25.65;57.07;100802.31;8360451;28;20050;-64
2022/05/17 18:05:25;;;;;;;3.70;0.90;;;;;;;25.48;57.67;100796.53;8355616;28;20107;-64
2022/05/17 18:09:25;;;;;;;3.42;0.95;;;;;;;25.41;58.17;100801.31;8345208;28;20560;-64
2022/05/17 18:13:30;;;;;;;2.13;1.05;;;;;;;25.34;58.50;100803.28;8368999;28;20108;-64
2022/05/17 18:17:39;;;;;;;2.58;1.08;;;;;;;25.28;58.77;100801.41;8336441;28;20608;-63
2022/05/17 18:21:40;;;;;;;4.10;0.98;;;;;;;25.20;59.15;100810.03;8347252;28;20041;-63
2022/05/17 18:25:41;;;;;;;3.35;1.13;;;;;;;25.16;59.46;100819.88;8362159;28;20049;-63
2022/05/17 18:29:45;;;;;;;3.88;1.00;;;;;;;25.03;60.22;100814.44;8353939;28;20041;-63
2022/05/17 18:33:47;;;;;;;3.67;1.40;;;;;;;25.02;59.56;100810.00;8366827;28;20104;-63
2022/05/17 18:37:48;;;;;;;5.57;1.33;;;;;;;24.99;59.90;100813.22;8368886;28;20094;-64
2022/05/17 18:41:49;;;;;;;6.28;1.73;;;;;;;24.92;60.13;100812.44;8372316;28;20060;-64
2022/05/17 18:45:50;;;;;;;3.27;1.27;;;;;;;24.89;59.91;100818.41;8347440;28;20045;-64
2022/05/17 18:49:51;;;;;;;5.07;1.27;;;;;;;24.85;60.13;100817.16;8367786;28;20613;-64
2022/05/17 18:53:52;;;;;;;3.35;1.30;;;;;;;24.85;60.37;100817.16;8368473;28;20036;-63
2022/05/17 18:57:53;;;;;;;4.10;1.13;;;;;;;24.83;60.50;100816.56;8368593;28;20040;-64
2022/05/17 19:01:55;;;;;;;2.38;1.20;;;;;;;24.66;61.06;100819.03;8353361;28;20052;-64
2022/05/17 19:05:58;;;;;;;11.68;1.80;;;;;;;24.56;61.46;100824.19;8351713;28;20047;-64
2022/05/17 19:14:19;;;;;;;1.83;1.33;;;;;;;24.42;61.80;100821.72;8372637;28;20029;-64
2022/05/17 19:18:22;;;;;;;3.30;1.00;;;;;;;24.31;62.67;100819.69;8371675;28;20040;-64
2022/05/17 19:22:26;;;;;;;1.63;0.90;;;;;;;24.35;61.83;100815.38;8361605;28;20041;-64
2022/05/17 19:26:26;;;;;;;;;;;;;;;24.32;62.16;100813.06;8373561;28;20048;-63
2022/05/17 19:30:27;;;;;;;4.50;1.33;;;;;;;24.20;62.57;100812.09;8366517;28;19939;-63
2022/05/17 19:34:31;;;;;;;3.22;1.33;;;;;;;24.12;62.54;100798.53;8344026;28;20064;-63
2022/05/17 19:39:32;;;;;;;4.55;1.17;;;;;;;24.06;62.88;100810.47;8338988;28;20056;-63
2022/05/17 19:42:52;;;;;;;2.03;0.88;;;;;;;23.99;63.30;100815.16;8370933;28;20075;-63
2022/05/17 19:46:56;;;;;;;4.75;1.48;;;;;;;23.92;63.92;100830.91;8347395;28;20474;-63
2022/05/17 19:50:56;;;;;;;3.42;1.27;;;;;;;23.89;64.03;100834.09;8372953;28;20068;-63